Time;durP1;ratioP1;P1;durP2;ratioP2;P2;SDS_P1;SDS_P2;PMS_P1;PMS_P2;Temp;Humidity;BMP_temperature;BMP_pressure;BME280_temperature;BME280_humidity;BME280_pressure;Samples;Min_cycle;Max_cycle;Signal;HPM_P1;HPM_P2
2022/03/31 00:00:31;;;;;;;;;62.00;49.60;;;;;;;;4953154;28;31011;-90
2022/03/31 00:02:57;;;;;;;;;63.33;50.67;;;;;;;;4948057;28;29507;-91
2022/03/31 00:05:23;;;;;;;;;60.00;49.60;;;;;;;;4966157;28;28248;-91
2022/03/31 00:07:48;;;;;;;;;61.00;46.67;;;;;;;;4970867;28;28258;-91
2022/03/31 00:10:13;;;;;;;;;61.00;48.00;;;;;;;;4952980;28;30708;-90
2022/03/31 00:12:39;;;;;;;;;61.00;48.67;;;;;;;;4970774;28;28216;-91
2022/03/31 00:15:04;;;;;;;;;60.00;47.00;;;;;;;;4974490;28;28412;-91
2022/03/31 00:17:29;;;;;;;;;62.33;49.00;;;;;;;;4953448;28;28342;-90
2022/03/31 00:19:55;;;;;;;;;58.00;48.00;;;;;;;;4970317;28;29182;-90
2022/03/31 00:22:20;;;;;;;;;63.67;51.00;;;;;;;;4969761;28;28692;-90
2022/03/31 00:24:46;;;;;;;;;61.50;50.00;;;;;;;;4938732;28;28576;-90
2022/03/31 00:27:11;;;;;;;;;67.00;53.67;;;;;;;;4953145;28;28449;-91
2022/03/31 00:29:37;;;;;;;;;67.25;51.25;;;;;;;;4970143;28;28560;-91
2022/03/31 00:32:03;;;;;;;;;66.00;51.00;;;;;;;;4952315;28;30366;-90
2022/03/31 00:34:30;;;;;;;;;62.00;50.00;;;;;;;;4970148;28;28551;-89
2022/03/31 00:36:56;;;;;;;;;64.25;51.00;;;;;;;;4970456;28;28247;-90
2022/03/31 00:39:31;;;;;;;;;60.50;47.00;;;;;;;;4970441;28;28429;-91
2022/03/31 00:41:57;;;;;;;;;58.60;46.60;;;;;;;;4970140;28;28327;-91
2022/03/31 00:44:23;;;;;;;;;60.20;49.40;;;;;;;;4953241;28;28425;-92
2022/03/31 00:46:52;;;;;;;;;61.25;48.25;;;;;;;;4953182;28;30311;-92
2022/03/31 00:49:19;;;;;;;;;61.25;49.75;;;;;;;;4953058;28;28612;-92
2022/03/31 00:51:44;;;;;;;;;56.25;45.50;;;;;;;;4969537;28;28415;-91
2022/03/31 00:54:10;;;;;;;;;61.00;48.00;;;;;;;;4970165;28;28454;-91
2022/03/31 00:56:35;;;;;;;;;61.50;46.75;;;;;;;;4968954;28;27880;-91
2022/03/31 00:59:01;;;;;;;;;56.67;46.00;;;;;;;;4969686;28;28307;-91
2022/03/31 01:01:27;;;;;;;;;61.00;48.00;;;;;;;;4968180;28;28017;-91
2022/03/31 01:03:52;;;;;;;;;56.25;45.00;;;;;;;;4969554;28;28472;-90
2022/03/31 01:06:18;;;;;;;;;58.00;46.00;;;;;;;;4952601;28;27926;-91
2022/03/31 01:08:43;;;;;;;;;55.50;44.75;;;;;;;;4969851;28;29451;-91
2022/03/31 01:11:08;;;;;;;;;56.33;45.33;;;;;;;;4952535;28;28375;-91
2022/03/31 01:13:33;;;;;;;;;60.67;47.00;;;;;;;;4952117;28;28272;-91
2022/03/31 01:15:59;;;;;;;;;56.75;47.50;;;;;;;;4969544;28;28720;-91
2022/03/31 01:18:25;;;;;;;;;55.33;45.67;;;;;;;;4970013;28;28339;-89
2022/03/31 01:20:50;;;;;;;;;55.00;45.67;;;;;;;;4969557;28;28398;-90
2022/03/31 01:23:15;;;;;;;;;62.00;48.00;;;;;;;;4951742;28;28518;-90
2022/03/31 01:25:41;;;;;;;;;63.75;51.00;;;;;;;;4968731;28;28350;-89
2022/03/31 01:28:07;;;;;;;;;59.80;47.60;;;;;;;;4951355;28;28486;-90
2022/03/31 01:30:32;;;;;;;;;56.00;45.00;;;;;;;;4951109;28;29282;-89
2022/03/31 01:32:57;;;;;;;;;59.25;47.50;;;;;;;;4969541;28;28405;-88
2022/03/31 01:35:23;;;;;;;;;59.25;46.00;;;;;;;;4969214;28;28344;-89
2022/03/31 01:37:49;;;;;;;;;57.67;47.00;;;;;;;;4969239;28;28460;-89
2022/03/31 01:40:14;;;;;;;;;57.67;47.33;;;;;;;;4969238;28;28383;-91
2022/03/31 01:42:40;;;;;;;;;53.67;44.00;;;;;;;;4969356;28;28401;-90
2022/03/31 01:45:07;;;;;;;;;58.00;46.25;;;;;;;;4951443;28;28545;-90
2022/03/31 01:47:32;;;;;;;;;57.20;45.60;;;;;;;;4954738;28;29618;-90
2022/03/31 01:49:57;;;;;;;;;55.50;44.25;;;;;;;;4968796;28;28275;-90
2022/03/31 01:52:23;;;;;;;;;57.75;45.25;;;;;;;;4951295;28;28357;-90
2022/03/31 01:54:49;;;;;;;;;54.75;43.50;;;;;;;;4969161;28;28317;-91
2022/03/31 01:57:14;;;;;;;;;49.60;40.40;;;;;;;;4951798;28;30566;-90
2022/03/31 01:59:43;;;;;;;;;46.25;40.25;;;;;;;;4968587;28;28373;-90
2022/03/31 02:02:10;;;;;;;;;50.00;41.00;;;;;;;;4951329;28;28346;-91
2022/03/31 02:04:36;;;;;;;;;46.50;39.50;;;;;;;;4969434;28;28398;-90
2022/03/31 02:07:01;;;;;;;;;46.25;40.00;;;;;;;;4967852;28;28486;-91
2022/03/31 02:09:27;;;;;;;;;37.75;34.75;;;;;;;;4951838;28;28308;-91
2022/03/31 02:11:52;;;;;;;;;45.50;36.25;;;;;;;;4951586;28;28301;-92
2022/03/31 02:14:19;;;;;;;;;40.75;35.25;;;;;;;;4951256;28;28680;-92
2022/03/31 02:16:45;;;;;;;;;40.50;36.00;;;;;;;;4951372;28;29809;-91
2022/03/31 02:19:11;;;;;;;;;46.25;35.50;;;;;;;;4950822;28;29111;-90
2022/03/31 02:21:36;;;;;;;;;45.25;39.00;;;;;;;;4968809;28;28496;-90
2022/03/31 02:24:02;;;;;;;;;38.75;34.00;;;;;;;;4951918;28;28588;-91
2022/03/31 02:26:27;;;;;;;;;37.25;33.50;;;;;;;;4969151;28;29421;-90
2022/03/31 02:28:52;;;;;;;;;38.50;34.75;;;;;;;;4951339;28;28840;-90
2022/03/31 02:31:17;;;;;;;;;42.50;34.25;;;;;;;;4968142;28;28526;-91
2022/03/31 02:33:43;;;;;;;;;39.00;35.67;;;;;;;;4968916;28;28885;-91
2022/03/31 02:36:08;;;;;;;;;45.00;36.00;;;;;;;;4951517;28;29921;-92
2022/03/31 02:38:34;;;;;;;;;43.00;38.00;;;;;;;;4971407;28;28417;-92
2022/03/31 02:41:00;;;;;;;;;38.00;34.00;;;;;;;;4972022;28;28637;-91
2022/03/31 02:43:25;;;;;;;;;44.75;36.25;;;;;;;;4972751;28;28575;-92
2022/03/31 02:45:50;;;;;;;;;42.00;37.00;;;;;;;;4954930;28;30885;-92
2022/03/31 02:48:16;;;;;;;;;41.25;33.25;;;;;;;;4954755;28;29477;-91
2022/03/31 02:50:41;;;;;;;;;49.75;38.25;;;;;;;;4954399;28;28439;-91
2022/03/31 02:55:50;;;;;;;;;46.00;40.00;;;;;;;;4971883;28;28323;-91
2022/03/31 02:58:15;;;;;;;;;46.67;36.33;;;;;;;;4971699;28;28528;-90
2022/03/31 03:00:40;;;;;;;;;45.33;39.33;;;;;;;;4954527;28;28327;-92
2022/03/31 03:03:06;;;;;;;;;40.50;34.75;;;;;;;;4970119;28;28505;-91
2022/03/31 03:05:31;;;;;;;;;39.75;35.75;;;;;;;;4971195;28;28566;-90
2022/03/31 03:07:57;;;;;;;;;39.75;33.25;;;;;;;;4953768;28;28263;-89
2022/03/31 03:10:22;;;;;;;;;38.00;33.00;;;;;;;;4971794;28;28397;-89
2022/03/31 03:12:49;;;;;;;;;33.00;31.00;;;;;;;;4954346;28;28542;-92
2022/03/31 03:15:16;;;;;;;;;38.75;33.50;;;;;;;;4974359;28;28950;-89
2022/03/31 03:17:42;;;;;;;;;34.80;33.00;;;;;;;;4971992;28;28508;-91
2022/03/31 03:20:08;;;;;;;;;36.75;33.00;;;;;;;;4972401;28;28436;-90
2022/03/31 03:22:33;;;;;;;;;24.80;24.80;;;;;;;;4971479;28;28255;-89
2022/03/31 03:24:59;;;;;;;;;32.25;27.25;;;;;;;;4971739;28;28643;-90
2022/03/31 03:27:25;;;;;;;;;29.50;26.00;;;;;;;;4970890;28;28431;-90
2022/03/31 03:29:50;;;;;;;;;25.33;23.33;;;;;;;;4971721;28;28122;-90
2022/03/31 03:32:15;;;;;;;;;24.00;24.00;;;;;;;;4971563;28;28264;-90
2022/03/31 03:34:41;;;;;;;;;32.25;26.75;;;;;;;;4971115;28;28481;-90
2022/03/31 03:37:06;;;;;;;;;26.67;25.33;;;;;;;;4953589;28;29000;-89
2022/03/31 03:39:33;;;;;;;;;20.25;20.25;;;;;;;;4971357;28;28460;-89
2022/03/31 03:41:58;;;;;;;;;19.40;15.20;;;;;;;;4954148;28;28331;-89
2022/03/31 03:44:24;;;;;;;;;13.25;13.25;;;;;;;;4971287;28;29339;-90
2022/03/31 03:46:50;;;;;;;;;12.00;12.00;;;;;;;;4971356;28;28406;-89
2022/03/31 03:49:15;;;;;;;;;13.00;10.00;;;;;;;;4971263;28;28432;-90
2022/03/31 03:51:40;;;;;;;;;11.67;9.67;;;;;;;;4954304;28;28407;-90
2022/03/31 03:54:05;;;;;;;;;9.25;9.25;;;;;;;;4970802;28;28359;-90
2022/03/31 03:56:31;;;;;;;;;7.00;7.00;;;;;;;;4971638;28;28437;-91
2022/03/31 03:58:56;;;;;;;;;5.50;5.50;;;;;;;;4953387;28;28564;-90
2022/03/31 04:01:21;;;;;;;;;6.00;6.00;;;;;;;;4970818;28;28394;-90
2022/03/31 04:03:46;;;;;;;;;5.00;5.00;;;;;;;;4970043;28;29270;-90
2022/03/31 04:06:11;;;;;;;;;4.75;4.75;;;;;;;;4971396;28;28469;-90
2022/03/31 04:08:38;;;;;;;;;5.00;5.00;;;;;;;;4971064;28;28338;-89
2022/03/31 04:11:03;;;;;;;;;4.75;4.75;;;;;;;;4964423;28;28441;-89
2022/03/31 04:13:28;;;;;;;;;5.25;5.25;;;;;;;;4962285;28;28559;-90
2022/03/31 04:15:53;;;;;;;;;6.00;6.00;;;;;;;;4954208;28;28528;-91
2022/03/31 04:18:19;;;;;;;;;4.75;3.75;;;;;;;;4953814;28;28458;-90
2022/03/31 04:20:44;;;;;;;;;4.25;4.25;;;;;;;;4970692;28;28572;-89
2022/03/31 04:23:09;;;;;;;;;6.00;6.00;;;;;;;;4953880;28;28775;-90
2022/03/31 04:25:34;;;;;;;;;4.00;4.00;;;;;;;;4953532;28;28905;-91
2022/03/31 04:28:00;;;;;;;;;5.50;4.00;;;;;;;;4971393;28;28417;-91
2022/03/31 04:30:26;;;;;;;;;3.25;3.25;;;;;;;;4953542;28;28530;-91
2022/03/31 04:32:52;;;;;;;;;4.00;4.00;;;;;;;;4971530;28;29201;-91
2022/03/31 04:35:17;;;;;;;;;5.00;5.00;;;;;;;;4971400;28;28740;-92
2022/03/31 04:37:42;;;;;;;;;4.67;4.67;;;;;;;;4953666;28;28437;-91
2022/03/31 04:40:08;;;;;;;;;3.75;3.75;;;;;;;;4953071;28;28648;-91
2022/03/31 04:42:34;;;;;;;;;5.20;5.20;;;;;;;;4953899;28;30510;-89
2022/03/31 04:44:59;;;;;;;;;4.75;4.75;;;;;;;;4971482;28;28307;-92
2022/03/31 04:47:25;;;;;;;;;5.00;5.00;;;;;;;;4954760;28;28187;-93
2022/03/31 04:49:50;;;;;;;;;6.00;6.00;;;;;;;;4954694;28;28588;-92
2022/03/31 04:52:15;;;;;;;;;6.25;5.75;;;;;;;;4954914;28;29817;-91
2022/03/31 04:54:43;;;;;;;;;6.00;6.00;;;;;;;;4955101;28;28872;-92
2022/03/31 04:57:12;;;;;;;;;6.00;6.00;;;;;;;;4954675;28;28350;-92
2022/03/31 04:59:38;;;;;;;;;5.60;5.60;;;;;;;;4955449;28;27993;-92
2022/03/31 05:02:04;;;;;;;;;5.50;5.50;;;;;;;;4952822;28;30153;-93
2022/03/31 05:04:29;;;;;;;;;7.50;7.00;;;;;;;;4954353;28;28879;-92
2022/03/31 05:06:55;;;;;;;;;6.67;6.67;;;;;;;;4954118;28;28506;-91
2022/03/31 05:09:21;;;;;;;;;7.00;6.75;;;;;;;;4954329;28;27902;-91
2022/03/31 05:11:46;;;;;;;;;9.60;9.60;;;;;;;;4971160;28;29466;-91
2022/03/31 05:14:12;;;;;;;;;7.00;7.00;;;;;;;;4953123;28;28554;-91
2022/03/31 05:16:37;;;;;;;;;8.25;7.00;;;;;;;;4957587;28;28469;-91
2022/03/31 05:19:02;;;;;;;;;9.25;9.25;;;;;;;;4970595;28;28477;-91
2022/03/31 05:21:27;;;;;;;;;8.33;7.00;;;;;;;;4944947;28;29667;-91
2022/03/31 05:23:53;;;;;;;;;7.25;7.00;;;;;;;;4934597;28;28529;-91
2022/03/31 05:26:18;;;;;;;;;6.33;6.33;;;;;;;;4937643;28;28323;-92
2022/03/31 05:28:43;;;;;;;;;8.00;7.00;;;;;;;;4936001;28;28751;-93
2022/03/31 05:31:08;;;;;;;;;8.00;6.00;;;;;;;;4935769;28;29683;-92
2022/03/31 05:33:34;;;;;;;;;4.75;4.00;;;;;;;;4935500;28;28403;-93
2022/03/31 05:36:01;;;;;;;;;5.50;5.50;;;;;;;;4936248;28;28103;-91
2022/03/31 05:38:27;;;;;;;;;7.00;6.00;;;;;;;;4937161;28;27962;-93
2022/03/31 05:40:52;;;;;;;;;5.75;5.75;;;;;;;;4937372;28;30507;-94
2022/03/31 05:43:17;;;;;;;;;5.00;3.50;;;;;;;;4937350;28;28863;-92
2022/03/31 05:45:43;;;;;;;;;4.00;2.00;;;;;;;;4935611;28;28291;-92
2022/03/31 05:48:08;;;;;;;;;4.25;4.25;;;;;;;;4935722;28;28360;-91
2022/03/31 05:50:33;;;;;;;;;4.33;3.00;;;;;;;;4936133;28;30522;-92
2022/03/31 05:52:58;;;;;;;;;4.50;4.50;;;;;;;;4935825;28;28846;-92
2022/03/31 05:55:24;;;;;;;;;3.00;3.00;;;;;;;;4935900;28;28291;-93
2022/03/31 05:57:49;;;;;;;;;5.75;4.00;;;;;;;;4953637;28;28441;-92
2022/03/31 06:00:18;;;;;;;;;3.00;3.00;;;;;;;;4935043;28;29979;-90
2022/03/31 06:02:45;;;;;;;;;6.20;5.40;;;;;;;;4936735;28;28563;-94
2022/03/31 06:05:13;;;;;;;;;7.00;7.00;;;;;;;;4935700;28;27891;-91
2022/03/31 06:07:39;;;;;;;;;5.00;5.00;;;;;;;;4952606;28;28453;-89
2022/03/31 06:10:05;;;;;;;;;6.00;6.00;;;;;;;;4951981;28;28439;-90
2022/03/31 06:12:30;;;;;;;;;6.00;6.00;;;;;;;;4958733;28;28441;-93
2022/03/31 06:14:55;;;;;;;;;8.25;6.25;;;;;;;;4940793;28;28669;-93
2022/03/31 06:17:21;;;;;;;;;5.00;5.00;;;;;;;;4942442;28;27878;-91
2022/03/31 06:19:46;;;;;;;;;6.00;6.00;;;;;;;;4959047;28;28866;-93
2022/03/31 06:22:11;;;;;;;;;7.00;5.33;;;;;;;;4940023;28;28803;-92
2022/03/31 06:24:37;;;;;;;;;7.00;7.00;;;;;;;;4956639;28;27788;-92
2022/03/31 06:27:03;;;;;;;;;7.75;7.75;;;;;;;;4941104;28;28750;-96
2022/03/31 06:29:29;;;;;;;;;7.60;6.00;;;;;;;;5553033;23;30124;-95
2022/03/31 06:31:58;;;;;;;;;7.00;6.00;;;;;;;;4987483;28;28598;-90
2022/03/31 06:34:23;;;;;;;;;6.40;6.40;;;;;;;;4995974;28;28349;-88
2022/03/31 06:36:49;;;;;;;;;6.00;6.00;;;;;;;;4996418;28;28347;-93
2022/03/31 06:39:14;;;;;;;;;7.00;7.00;;;;;;;;4984690;28;30027;-92
2022/03/31 06:41:40;;;;;;;;;7.33;6.33;;;;;;;;4964527;28;28440;-93
2022/03/31 06:44:07;;;;;;;;;7.00;7.00;;;;;;;;4990083;28;27857;-91
2022/03/31 06:46:34;;;;;;;;;6.50;6.50;;;;;;;;4984972;28;27929;-91
2022/03/31 06:49:00;;;;;;;;;8.50;8.25;;;;;;;;4996149;28;28562;-91
2022/03/31 06:51:25;;;;;;;;;12.50;9.00;;;;;;;;4960198;28;28808;-94
2022/03/31 06:53:50;;;;;;;;;8.00;8.00;;;;;;;;4960084;28;28422;-92
2022/03/31 06:56:18;;;;;;;;;4.75;4.75;;;;;;;;4958490;28;28399;-92
2022/03/31 06:58:44;;;;;;;;;6.20;6.20;;;;;;;;4951431;28;30919;-93
2022/03/31 07:01:09;;;;;;;;;4.75;4.75;;;;;;;;4954958;28;28862;-91
2022/03/31 07:03:35;;;;;;;;;6.50;6.50;;;;;;;;4954937;28;28462;-91
2022/03/31 07:06:01;;;;;;;;;6.75;6.75;;;;;;;;4956718;28;28420;-91
2022/03/31 07:08:26;;;;;;;;;7.00;7.00;;;;;;;;4938658;28;30752;-91
2022/03/31 07:10:51;;;;;;;;;4.75;4.75;;;;;;;;4939603;28;28530;-92
2022/03/31 07:13:16;;;;;;;;;7.50;7.50;;;;;;;;4938831;28;28965;-91
2022/03/31 07:15:42;;;;;;;;;6.33;6.33;;;;;;;;4943790;28;27890;-92
2022/03/31 07:18:07;;;;;;;;;7.00;7.00;;;;;;;;4938282;28;29626;-91
2022/03/31 07:20:33;;;;;;;;;7.25;7.25;;;;;;;;4971306;28;28370;-91
2022/03/31 07:22:59;;;;;;;;;5.25;5.25;;;;;;;;4958703;28;28513;-93
2022/03/31 07:25:24;;;;;;;;;6.20;6.20;;;;;;;;4961199;28;27881;-89
2022/03/31 07:27:50;;;;;;;;;7.00;6.00;;;;;;;;4975744;28;28364;-92
2022/03/31 07:30:16;;;;;;;;;9.75;8.00;;;;;;;;4950664;28;28796;-93
2022/03/31 07:32:47;;;;;;;;;7.00;7.00;;;;;;;;4950967;28;28466;-93
2022/03/31 07:35:13;;;;;;;;;5.00;5.00;;;;;;;;4940265;28;28889;-89
2022/03/31 07:37:38;;;;;;;;;8.00;8.00;;;;;;;;4969018;28;29400;-89
2022/03/31 07:40:03;;;;;;;;;7.00;7.00;;;;;;;;4954175;28;28445;-89
2022/03/31 07:42:29;;;;;;;;;7.75;7.75;;;;;;;;4971893;28;28512;-89
2022/03/31 07:44:54;;;;;;;;;7.00;7.00;;;;;;;;4954061;28;28446;-88
2022/03/31 07:47:19;;;;;;;;;7.50;7.00;;;;;;;;4965915;28;28409;-88
2022/03/31 07:49:46;;;;;;;;;8.50;8.50;;;;;;;;4934720;28;28957;-85
2022/03/31 07:52:12;;;;;;;;;9.20;8.00;;;;;;;;4942138;28;28331;-94
2022/03/31 07:54:37;;;;;;;;;6.67;6.67;;;;;;;;4926620;28;27825;-94
2022/03/31 07:57:03;;;;;;;;;7.00;7.00;;;;;;;;4932446;28;28426;-93
2022/03/31 07:59:33;;;;;;;;;7.00;7.00;;;;;;;;4941953;28;28946;-91
2022/03/31 08:01:58;;;;;;;;;6.00;6.00;;;;;;;;4942702;28;28375;-93
2022/03/31 08:04:24;;;;;;;;;6.25;5.75;;;;;;;;4944398;28;28027;-95
2022/03/31 08:06:50;;;;;;;;;10.00;7.00;;;;;;;;4942351;28;29599;-93
2022/03/31 08:09:17;;;;;;;;;10.25;8.75;;;;;;;;4944341;28;27829;-89
2022/03/31 08:11:43;;;;;;;;;9.25;9.25;;;;;;;;4939784;28;28474;-93
2022/03/31 08:14:08;;;;;;;;;11.60;9.60;;;;;;;;4939739;28;28341;-93
2022/03/31 08:16:33;;;;;;;;;9.00;9.00;;;;;;;;4938654;28;30030;-92
2022/03/31 08:18:58;;;;;;;;;8.00;8.00;;;;;;;;4937252;28;28571;-92
2022/03/31 08:21:24;;;;;;;;;10.00;8.00;;;;;;;;4936137;28;28340;-92
2022/03/31 08:23:49;;;;;;;;;7.67;7.67;;;;;;;;4944037;28;28325;-91
2022/03/31 08:26:14;;;;;;;;;9.00;9.00;;;;;;;;4919973;28;30093;-93
2022/03/31 08:28:40;;;;;;;;;10.00;10.00;;;;;;;;4919978;28;28824;-93
2022/03/31 08:31:06;;;;;;;;;9.00;9.00;;;;;;;;4928314;28;28411;-92
2022/03/31 08:33:31;;;;;;;;;10.33;10.33;;;;;;;;4938957;28;28497;-93
2022/03/31 08:35:56;;;;;;;;;11.00;11.00;;;;;;;;4971841;28;30968;-94
2022/03/31 08:38:22;;;;;;;;;9.67;9.67;;;;;;;;4926229;28;28843;-94
2022/03/31 08:40:47;;;;;;;;;13.00;13.00;;;;;;;;4938428;28;28486;-95
2022/03/31 08:43:13;;;;;;;;;11.00;11.00;;;;;;;;4921417;28;28457;-94
2022/03/31 08:45:39;;;;;;;;;12.00;12.00;;;;;;;;4953231;28;29158;-94
2022/03/31 08:48:06;;;;;;;;;14.00;12.50;;;;;;;;4938372;28;28453;-93
2022/03/31 08:50:33;;;;;;;;;14.00;12.40;;;;;;;;4929276;28;27890;-94
2022/03/31 08:52:58;;;;;;;;;15.40;15.40;;;;;;;;4937877;28;27993;-92
2022/03/31 08:55:24;;;;;;;;;13.00;13.00;;;;;;;;4953110;28;30262;-93
2022/03/31 08:57:51;;;;;;;;;12.75;12.75;;;;;;;;4953254;28;28777;-96
2022/03/31 09:00:17;;;;;;;;;14.80;14.80;;;;;;;;4920622;28;28264;-93
2022/03/31 09:02:53;;;;;;;;;16.00;14.00;;;;;;;;4936898;28;27900;-93
2022/03/31 09:05:18;;;;;;;;;13.25;13.25;;;;;;;;4958131;28;30261;-94
2022/03/31 09:07:54;;;;;;;;;17.25;15.75;;;;;;;;4945260;28;27836;-94
2022/03/31 09:10:26;;;;;;;;;16.33;16.33;;;;;;;;4952821;28;28485;-94
2022/03/31 09:12:51;;;;;;;;;15.50;14.50;;;;;;;;4937841;28;28525;-93
2022/03/31 09:15:17;;;;;;;;;14.00;14.00;;;;;;;;4938696;28;30410;-94
2022/03/31 09:17:42;;;;;;;;;19.00;14.75;;;;;;;;4938781;28;28577;-94
2022/03/31 09:20:07;;;;;;;;;19.00;17.75;;;;;;;;4956593;28;27867;-93
2022/03/31 09:22:53;;;;;;;;;16.00;16.00;;;;;;;;4939375;28;28327;-93
2022/03/31 09:25:25;;;;;;;;;11.50;11.50;;;;;;;;4938325;28;29967;-94
2022/03/31 09:27:51;;;;;;;;;10.75;10.25;;;;;;;;4940646;28;28634;-94
2022/03/31 09:30:17;;;;;;;;;9.00;9.00;;;;;;;;4940450;28;28339;-93
2022/03/31 09:32:50;;;;;;;;;8.00;8.00;;;;;;;;4942162;28;28815;-95
2022/03/31 09:35:20;;;;;;;;;10.25;9.00;;;;;;;;4935527;28;29916;-92
2022/03/31 09:37:48;;;;;;;;;10.67;9.00;;;;;;;;4952418;28;28414;-88
2022/03/31 09:40:13;;;;;;;;;5.80;5.80;;;;;;;;4933576;28;28515;-91
2022/03/31 09:42:38;;;;;;;;;7.75;7.75;;;;;;;;4932985;28;28578;-93
2022/03/31 09:45:04;;;;;;;;;9.00;7.50;;;;;;;;4925215;28;30122;-93
2022/03/31 09:47:29;;;;;;;;;8.20;7.40;;;;;;;;4937691;28;28418;-93
2022/03/31 09:49:55;;;;;;;;;8.00;8.00;;;;;;;;4936834;28;28267;-93
2022/03/31 09:52:20;;;;;;;;;9.00;7.50;;;;;;;;4937624;28;28335;-92
2022/03/31 09:54:47;;;;;;;;;7.00;7.00;;;;;;;;4936718;28;30799;-94
2022/03/31 09:57:13;;;;;;;;;7.60;5.60;;;;;;;;4932684;28;28765;-93
2022/03/31 09:59:39;;;;;;;;;9.00;9.00;;;;;;;;4919731;28;28052;-95
2022/03/31 10:02:05;;;;;;;;;7.25;7.25;;;;;;;;4921327;28;28473;-94
2022/03/31 10:04:31;;;;;;;;;6.00;5.75;;;;;;;;4926395;28;29795;-94
2022/03/31 10:06:57;;;;;;;;;5.00;5.00;;;;;;;;4938135;28;28643;-93
2022/03/31 10:09:23;;;;;;;;;5.60;5.60;;;;;;;;4920479;28;28302;-93
2022/03/31 10:12:11;;;;;;;;;7.00;6.00;;;;;;;;4950674;28;28325;-94
2022/03/31 10:14:45;;;;;;;;;7.00;6.00;;;;;;;;4953237;28;29877;-94
2022/03/31 10:17:11;;;;;;;;;6.00;6.00;;;;;;;;4940301;28;28648;-94
2022/03/31 10:19:44;;;;;;;;;7.00;7.00;;;;;;;;4932026;28;27763;-93
2022/03/31 10:22:09;;;;;;;;;8.00;8.00;;;;;;;;4921561;28;28303;-94
2022/03/31 10:24:46;;;;;;;;;7.00;4.75;;;;;;;;4922018;28;29785;-96
2022/03/31 10:27:25;;;;;;;;;5.75;5.75;;;;;;;;4922258;28;28975;-95
2022/03/31 10:29:50;;;;;;;;;6.50;6.25;;;;;;;;4924811;28;27809;-95
2022/03/31 10:32:21;;;;;;;;;5.25;5.25;;;;;;;;4940340;28;27892;-94
2022/03/31 10:34:48;;;;;;;;;5.75;5.75;;;;;;;;4946212;28;29831;-94
2022/03/31 10:37:14;;;;;;;;;4.60;4.60;;;;;;;;4959343;28;28568;-93
2022/03/31 10:39:49;;;;;;;;;3.25;3.25;;;;;;;;4959933;28;28429;-96
2022/03/31 10:42:14;;;;;;;;;2.80;2.80;;;;;;;;4944348;28;28558;-86
2022/03/31 10:44:40;;;;;;;;;3.00;3.00;;;;;;;;4973523;28;28405;-91
2022/03/31 10:47:07;;;;;;;;;1.25;1.25;;;;;;;;4955765;28;28415;-92
2022/03/31 10:49:33;;;;;;;;;4.25;3.00;;;;;;;;4956847;28;28563;-92
2022/03/31 10:51:59;;;;;;;;;1.40;1.40;;;;;;;;4957745;28;28334;-94
2022/03/31 10:54:27;;;;;;;;;2.00;2.00;;;;;;;;4938449;28;29989;-92
2022/03/31 10:57:03;;;;;;;;;3.00;3.00;;;;;;;;4949604;28;29754;-94
2022/03/31 10:59:28;;;;;;;;;1.00;1.00;;;;;;;;4958416;28;28465;-93
2022/03/31 11:01:53;;;;;;;;;3.00;3.00;;;;;;;;4956880;28;28601;-92
2022/03/31 11:04:19;;;;;;;;;2.00;2.00;;;;;;;;4959879;28;29704;-95
2022/03/31 11:06:51;;;;;;;;;4.00;2.00;;;;;;;;4938763;28;28511;-89
2022/03/31 11:09:20;;;;;;;;;1.00;1.00;;;;;;;;4952254;28;28413;-89
2022/03/31 11:11:49;;;;;;;;;2.20;2.20;;;;;;;;4952659;28;28840;-88
2022/03/31 11:14:17;;;;;;;;;1.25;1.25;;;;;;;;4953539;28;28331;-89
2022/03/31 11:16:43;;;;;;;;;2.50;2.50;;;;;;;;4956463;28;28510;-90
2022/03/31 11:19:08;;;;;;;;;2.25;2.25;;;;;;;;4952952;28;28529;-87
2022/03/31 11:21:34;;;;;;;;;4.00;4.00;;;;;;;;4979696;28;27894;-89
2022/03/31 11:23:59;;;;;;;;;3.40;3.40;;;;;;;;4969917;28;29253;-88
2022/03/31 11:26:25;;;;;;;;;2.00;2.00;;;;;;;;4969484;28;28924;-90
2022/03/31 11:28:50;;;;;;;;;1.75;1.75;;;;;;;;4991135;28;28433;-88
2022/03/31 11:31:17;;;;;;;;;3.75;2.75;;;;;;;;4977991;28;28397;-88
2022/03/31 11:33:43;;;;;;;;;3.40;3.40;;;;;;;;4975751;28;28283;-89
2022/03/31 11:36:09;;;;;;;;;4.00;2.25;;;;;;;;4973030;28;28598;-88
2022/03/31 11:38:34;;;;;;;;;2.25;2.25;;;;;;;;4953938;28;28481;-88
2022/03/31 11:40:59;;;;;;;;;2.00;2.00;;;;;;;;4958754;28;28478;-87
2022/03/31 11:43:25;;;;;;;;;5.75;5.75;;;;;;;;4966783;28;30057;-88
2022/03/31 11:45:51;;;;;;;;;2.75;2.75;;;;;;;;4934449;28;28436;-88
2022/03/31 11:48:19;;;;;;;;;4.00;4.00;;;;;;;;4951955;28;28513;-89
2022/03/31 11:50:57;;;;;;;;;2.25;2.25;;;;;;;;4953504;28;28457;-88
2022/03/31 11:53:27;;;;;;;;;0.80;0.80;;;;;;;;4934603;28;28765;-89
2022/03/31 11:55:58;;;;;;;;;2.00;2.00;;;;;;;;4951946;28;28585;-90
2022/03/31 11:58:23;;;;;;;;;0.00;0.00;;;;;;;;4952234;28;28531;-88
2022/03/31 12:00:50;;;;;;;;;3.75;2.00;;;;;;;;4963865;28;28394;-89
2022/03/31 12:03:17;;;;;;;;;1.00;1.00;;;;;;;;4973075;28;28640;-88
2022/03/31 12:05:43;;;;;;;;;1.00;1.00;;;;;;;;4990366;28;28494;-88
2022/03/31 12:08:08;;;;;;;;;2.00;0.00;;;;;;;;4965151;28;28530;-88
2022/03/31 12:10:34;;;;;;;;;0.67;0.67;;;;;;;;4951663;28;28449;-89
2022/03/31 12:13:01;;;;;;;;;1.00;0.25;;;;;;;;4957125;28;29557;-89
2022/03/31 12:15:27;;;;;;;;;1.00;1.00;;;;;;;;4968998;28;28605;-89
2022/03/31 12:18:06;;;;;;;;;0.00;0.00;;;;;;;;4953442;28;28568;-88
2022/03/31 12:20:33;;;;;;;;;1.00;1.00;;;;;;;;4990336;28;28383;-87
2022/03/31 12:22:58;;;;;;;;;2.00;1.80;;;;;;;;4985954;28;28603;-89
2022/03/31 12:25:31;;;;;;;;;1.00;1.00;;;;;;;;4958868;28;28426;-88
2022/03/31 12:27:58;;;;;;;;;0.00;0.00;;;;;;;;4965859;28;28489;-88
2022/03/31 12:30:23;;;;;;;;;3.00;1.50;;;;;;;;4953916;28;28717;-89
2022/03/31 12:32:49;;;;;;;;;0.00;0.00;;;;;;;;4969271;28;29596;-87
2022/03/31 12:35:14;;;;;;;;;1.00;1.00;;;;;;;;4975030;28;28374;-90
2022/03/31 12:37:41;;;;;;;;;1.00;1.00;;;;;;;;4956960;28;28674;-89
2022/03/31 12:40:11;;;;;;;;;1.00;1.00;;;;;;;;4953237;28;28582;-88
2022/03/31 12:42:38;;;;;;;;;0.80;0.20;;;;;;;;4970457;28;28343;-88
2022/03/31 12:45:13;;;;;;;;;2.25;0.50;;;;;;;;4943280;28;28610;-89
2022/03/31 12:47:41;;;;;;;;;0.60;0.60;;;;;;;;4951323;28;28346;-88
2022/03/31 12:50:23;;;;;;;;;0.20;0.20;;;;;;;;4949733;28;28733;-89
2022/03/31 12:52:56;;;;;;;;;0.00;0.00;;;;;;;;4952142;28;28754;-89
2022/03/31 12:55:33;;;;;;;;;0.50;0.50;;;;;;;;4933292;28;28630;-87
2022/03/31 12:58:01;;;;;;;;;0.80;0.80;;;;;;;;4950885;28;28436;-88
2022/03/31 13:00:28;;;;;;;;;1.00;1.00;;;;;;;;4950795;28;28615;-88
2022/03/31 13:02:53;;;;;;;;;1.25;0.75;;;;;;;;4940688;28;28683;-88
2022/03/31 13:05:20;;;;;;;;;1.25;0.00;;;;;;;;4954415;28;28504;-88
2022/03/31 13:07:46;;;;;;;;;1.00;1.00;;;;;;;;4960230;28;28576;-88
2022/03/31 13:10:11;;;;;;;;;0.25;0.25;;;;;;;;4954033;28;28695;-88
2022/03/31 13:12:37;;;;;;;;;0.00;0.00;;;;;;;;4973413;28;29397;-89
2022/03/31 13:15:02;;;;;;;;;0.25;0.25;;;;;;;;4988359;28;28702;-89
2022/03/31 13:17:27;;;;;;;;;2.00;2.00;;;;;;;;4975155;28;28485;-89
2022/03/31 13:19:52;;;;;;;;;1.00;1.00;;;;;;;;4989312;28;28141;-89
2022/03/31 13:22:20;;;;;;;;;1.33;1.33;;;;;;;;4960733;28;29287;-89
2022/03/31 13:24:48;;;;;;;;;3.00;2.00;;;;;;;;4966989;28;28631;-88
2022/03/31 13:27:13;;;;;;;;;2.00;2.00;;;;;;;;4959358;28;28509;-88
2022/03/31 13:29:39;;;;;;;;;0.00;0.00;;;;;;;;4950541;28;28584;-88
2022/03/31 13:32:05;;;;;;;;;3.00;1.00;;;;;;;;4954340;28;28505;-89
2022/03/31 13:34:33;;;;;;;;;1.50;1.50;;;;;;;;4968905;28;28407;-89
2022/03/31 13:37:01;;;;;;;;;4.40;1.60;;;;;;;;4966723;28;28415;-88
2022/03/31 13:39:27;;;;;;;;;1.00;1.00;;;;;;;;4955320;28;28515;-87
2022/03/31 13:41:53;;;;;;;;;1.00;1.00;;;;;;;;4950097;28;28406;-87
2022/03/31 13:44:18;;;;;;;;;1.00;1.00;;;;;;;;4968201;28;28490;-88
2022/03/31 13:46:45;;;;;;;;;1.75;1.75;;;;;;;;4989029;28;28481;-89
2022/03/31 13:49:11;;;;;;;;;3.00;1.75;;;;;;;;4989156;28;28023;-87
2022/03/31 13:51:37;;;;;;;;;3.00;3.00;;;;;;;;4979217;28;28472;-88
2022/03/31 13:54:06;;;;;;;;;3.80;2.00;;;;;;;;4958581;28;28805;-86
2022/03/31 13:56:35;;;;;;;;;1.75;1.75;;;;;;;;4958497;28;28508;-87
2022/03/31 14:02:06;;;;;;;;;3.00;3.00;;;;;;;;4917284;28;28861;-86
2022/03/31 14:04:31;;;;;;;;;2.40;2.40;;;;;;;;4928459;28;28492;-87
2022/03/31 14:06:57;;;;;;;;;2.00;2.00;;;;;;;;4917760;28;28418;-87
2022/03/31 14:09:23;;;;;;;;;2.00;1.00;;;;;;;;4893841;29;28554;-88
2022/03/31 14:11:49;;;;;;;;;1.00;1.00;;;;;;;;4894027;28;30760;-88
2022/03/31 14:14:15;;;;;;;;;0.60;0.60;;;;;;;;4909917;28;28526;-88
2022/03/31 14:16:42;;;;;;;;;1.50;1.00;;;;;;;;4903125;28;28647;-89
2022/03/31 14:19:09;;;;;;;;;0.60;0.60;;;;;;;;4921597;28;28546;-88
2022/03/31 14:21:35;;;;;;;;;1.80;1.80;;;;;;;;4928307;28;29271;-90
2022/03/31 14:24:00;;;;;;;;;2.00;0.00;;;;;;;;4921681;28;29727;-89
2022/03/31 14:26:25;;;;;;;;;1.33;1.33;;;;;;;;4893263;29;28477;-89
2022/03/31 14:28:51;;;;;;;;;1.50;1.50;;;;;;;;4909551;29;28613;-89
2022/03/31 14:31:18;;;;;;;;;2.25;2.25;;;;;;;;4908917;28;28603;-89
2022/03/31 14:33:43;;;;;;;;;2.20;2.20;;;;;;;;4955890;28;28439;-89